KSHVKAEX

Guest
Details From KSHV - Shreveport Rgnl
To KAEX - Alexandria Intl
Flight Number -
Tags Generated
Created
Modified
Stats Distance 94 nm / 173 km
Max Altitude 0 ft / 0 m
Waypoints 2
Social Downloads 0
Likes 0
Share VATSIM

Download

Looking for another format? Having issues loading an existing format? Contact us
Advertisement - Login to hide

Notes

Generated

Route

KSHV KAEX

ID Type Via Altitude Latitude Longitude Leg Dist Tot Dist Heading (true) Name
O KSHV APT - 0 ft / 0 m 32.44506˚ -93.83292˚ - 0 nm - SHREVEPORT RGNL
O KAEX APT - 0 ft / 0 m 31.33673˚ -92.54432˚ 93 nm 93 nm 135° / 136° -

Altitude Profile

Advertisement - Login to hide

KSHV

Details ICAO KSHV (SHV)
Name SHREVEPORT RGNL
Region United States
Timezone America/Chicago (UTC-6.0)
Stats Elevation 257 ft / 78 m (AMSL)
Location 32.446960° -93.825410°
Runways 2
Magnetic Variation 1.436° E

METAR

KSHV 121856Z 32010G16KT 10SM CLR 13/M05 A3027 RMK AO2 SLP248 T01331050

Decode

TAF

TAF KSHV 121720Z 1218/1318 33010KT P6SM SKC FM130000 32005KT P6SM SKC FM130600 VRB03KT P6SM SKC FM131500 20012G20KT P6SM SKC

Decode

Departure Runways

ID Width Length Bearing (true) Bearing (mag) Surface Threshold Offset Overrun Length
05 150 ft / 46 m 6,197 ft / 1,889 m 60.78° 59.34° Asphalt 0 ft / 0 m 102 ft / 31 m
14 200 ft / 61 m 8,361 ft / 2,548 m 142.84° 141.40° Asphalt 0 ft / 0 m 102 ft / 31 m
23 150 ft / 46 m 6,197 ft / 1,889 m 240.79° 239.35° Asphalt 0 ft / 0 m 102 ft / 31 m
32 200 ft / 61 m 8,361 ft / 2,548 m 322.85° 321.41° Asphalt 374 ft / 114 m 102 ft / 31 m

KAEX

Details ICAO KAEX (AEX)
Name ALEXANDRIA INTL
Region United States
Timezone America/Chicago (UTC-6.0)
Stats Elevation 89 ft / 27 m (AMSL)
Location 31.327354° -92.548244°
Runways 2
Magnetic Variation 0.667° E

METAR

KAEX 121853Z 31007KT 10SM CLR 14/00 A3021 RMK AO2 SLP234 T01440000

Decode

TAF

TAF KAEX 121720Z 1218/1318 33011KT P6SM SKC FM130000 33003KT P6SM SKC

Decode

Destination Runways

ID Width Length Bearing (true) Bearing (mag) Surface Threshold Offset Overrun Length
14 150 ft / 46 m 9,366 ft / 2,855 m 144.10° 143.43° Concrete 0 ft / 0 m 1,000 ft / 305 m
18 150 ft / 46 m 7,023 ft / 2,141 m 188.94° 188.27° Asphalt 0 ft / 0 m 1,000 ft / 305 m
32 150 ft / 46 m 9,366 ft / 2,855 m 324.11° 323.44° Concrete 0 ft / 0 m 1,000 ft / 305 m
36 150 ft / 46 m 7,023 ft / 2,141 m 8.94° 8.27° Asphalt 0 ft / 0 m 1,000 ft / 305 m

Approach Navaids

Runway Type Ident Frequency Range Bearing (true) Bearing (mag) Slope Elevation
14 Localiser IERJ 110.10 MHz 18 nm / 33 km 144.11° 143.45° - 89 ft / 27 m (AMSL)
14 Glidescope IERJ 110.10 MHz 10 nm / 19 km 144.10° 143.44° 3.00° 85 ft / 26 m (AMSL)
14 DME IERJ 110.10 MHz 18 nm / 33 km - - - 89 ft / 27 m (AMSL)